»·PEaware :: CGMWT KRDD-KSCK

CGMWT :: KRDD-KSCK

FLIGHT INFORMATION

Flight Status: Arrived
Operator: Unknown
More flights by this operator :: More flights under this callsign
Pilot: Konrad W. (32064)
Aircraft: Diamond DA-40
(DA40)
More flights by this aircraft type
Origin: KRDD Redding Mun
United States
Destination: KSCK Stockton Metro
United States
More flights between these airports :: More routes between these airports
Route: +
File this flight plan on PilotEdge
Remarks: FF
Altitude:
(Current/Filed)
3,500ft
Speed:
(Current/Filed)
0kts
Departed: 28-Oct-20 07:20 AM
Arrived: 28-Oct-20 08:43 AM
Distance/Time
Traveled:
164nm/1:23
Distance/Time
To Go:
Arrived

Flight Plot

Page will automatically refresh every two minutes.

Flight plan parsing failed; only flown route is shown


Map Options




Map Legend


Flown Route
Filed Route
Departure Airport
Arrival Airport
Navaid (VOR, NDB)
Fix

Horizontal Profiles

Position Reports

Time Latitude Longitude Heading Altitude Ground
Speed
28-Oct-20 07:14 40.510225 -122.297753 358 501ft 0kts
28-Oct-20 07:15 40.510225 -122.297753 358 501ft 0kts
28-Oct-20 07:16 40.511616 -122.297533 51 502ft 23kts
28-Oct-20 07:17 40.519983 -122.296268 7 510ft 20kts
28-Oct-20 07:18 40.520268 -122.295834 95 510ft 0kts
28-Oct-20 07:19 40.517298 -122.294868 180 506ft 57kts
28-Oct-20 07:20 40.493968 -122.295324 179 988ft 87kts
28-Oct-20 07:21 40.470412 -122.299369 179 1564ft 90kts
28-Oct-20 07:22 40.442688 -122.299991 179 1953ft 105kts
28-Oct-20 07:23 40.413937 -122.296010 179 2353ft 107kts
28-Oct-20 07:24 40.385024 -122.288881 170 2754ft 107kts
28-Oct-20 07:25 40.355288 -122.283474 170 3154ft 107kts
28-Oct-20 07:26 40.325300 -122.277978 170 3456ft 115kts
28-Oct-20 07:27 40.292220 -122.271893 170 3462ft 121kts
28-Oct-20 07:28 40.258954 -122.265766 170 3461ft 120kts
28-Oct-20 07:29 40.225772 -122.259654 170 3457ft 119kts
28-Oct-20 07:30 40.192889 -122.253605 170 3455ft 119kts
28-Oct-20 07:31 40.159958 -122.247555 170 3453ft 119kts
28-Oct-20 07:32 40.126964 -122.241497 171 3451ft 119kts
28-Oct-20 07:33 40.094058 -122.235468 171 3448ft 119kts
28-Oct-20 07:34 40.060997 -122.230111 172 3447ft 119kts
28-Oct-20 07:35 40.027876 -122.224748 172 3445ft 120kts
28-Oct-20 07:36 39.994697 -122.219241 172 3444ft 120kts
28-Oct-20 07:37 39.966186 -122.201674 161 3433ft 120kts
28-Oct-20 07:38 39.933953 -122.195224 171 3461ft 117kts
28-Oct-20 07:39 39.901770 -122.188840 171 3459ft 117kts
28-Oct-20 07:40 39.869650 -122.182499 171 3457ft 117kts
28-Oct-20 07:41 39.837487 -122.176169 171 3455ft 117kts
28-Oct-20 07:42 39.805196 -122.169823 170 3455ft 117kts
28-Oct-20 07:43 39.772993 -122.163520 171 3454ft 117kts
28-Oct-20 07:44 39.739755 -122.156999 171 3453ft 125kts
28-Oct-20 07:45 39.704890 -122.150157 171 3451ft 126kts
28-Oct-20 07:46 39.670094 -122.143351 171 3449ft 126kts
28-Oct-20 07:47 39.635202 -122.136533 171 3449ft 126kts
28-Oct-20 07:48 39.600203 -122.129699 171 3448ft 127kts
28-Oct-20 07:49 39.565270 -122.122891 171 3446ft 126kts
28-Oct-20 07:50 39.530300 -122.116082 171 3445ft 127kts
28-Oct-20 07:51 39.495390 -122.109284 171 3445ft 127kts
28-Oct-20 07:52 39.460356 -122.102473 171 3444ft 127kts
28-Oct-20 07:53 39.425324 -122.095681 171 3443ft 127kts
28-Oct-20 07:54 39.390386 -122.088891 171 3442ft 127kts
28-Oct-20 07:55 39.355328 -122.082094 171 3442ft 127kts
28-Oct-20 07:56 39.320148 -122.075283 171 3442ft 128kts
28-Oct-20 07:57 39.284826 -122.068444 171 3442ft 128kts
28-Oct-20 07:58 39.249685 -122.061657 171 3442ft 128kts
28-Oct-20 07:59 39.214346 -122.054833 170 3439ft 128kts
28-Oct-20 08:00 39.178999 -122.048017 171 3442ft 128kts
28-Oct-20 08:01 39.143927 -122.041261 171 3468ft 127kts
28-Oct-20 08:02 39.109069 -122.033060 148 3474ft 127kts
28-Oct-20 08:03 39.074694 -122.032125 139 3469ft 127kts
28-Oct-20 08:04 39.051985 -121.997348 136 3472ft 127kts
28-Oct-20 08:05 39.019395 -121.980656 150 3469ft 128kts
28-Oct-20 08:06 38.990722 -121.953623 143 3473ft 128kts
28-Oct-20 08:07 38.966274 -121.922720 119 3472ft 126kts
28-Oct-20 08:08 38.934126 -121.906386 147 3479ft 128kts
28-Oct-20 08:09 38.903310 -121.883068 143 3474ft 128kts
28-Oct-20 08:10 38.872655 -121.859493 149 3476ft 128kts
28-Oct-20 08:11 38.841306 -121.837864 151 3477ft 127kts
28-Oct-20 08:12 38.810081 -121.816442 150 3476ft 127kts
28-Oct-20 08:13 38.779016 -121.795018 150 3476ft 127kts
28-Oct-20 08:14 38.748006 -121.773478 150 3476ft 127kts
28-Oct-20 08:15 38.716882 -121.751803 150 3475ft 127kts
28-Oct-20 08:16 38.685997 -121.730244 150 3476ft 127kts
28-Oct-20 08:17 38.655775 -121.709161 150 3475ft 127kts
28-Oct-20 08:18 38.624838 -121.687505 150 3475ft 127kts
28-Oct-20 08:19 38.593923 -121.665445 149 3475ft 127kts
28-Oct-20 08:20 38.563394 -121.643012 149 3475ft 126kts
28-Oct-20 08:21 38.532845 -121.620678 149 3476ft 126kts
28-Oct-20 08:22 38.502376 -121.598472 149 3476ft 126kts
28-Oct-20 08:23 38.471712 -121.576242 149 3477ft 126kts
28-Oct-20 08:24 38.441100 -121.553925 149 3475ft 126kts
28-Oct-20 08:25 38.410666 -121.532703 155 3475ft 126kts
28-Oct-20 08:26 38.378404 -121.514525 155 3475ft 126kts
28-Oct-20 08:27 38.346341 -121.496417 155 3476ft 126kts
28-Oct-20 08:28 38.314240 -121.478275 155 3475ft 126kts
28-Oct-20 08:30 38.282027 -121.460078 155 3475ft 126kts
28-Oct-20 08:31 38.249925 -121.441958 155 3475ft 126kts
28-Oct-20 08:32 38.220475 -121.419166 154 3465ft 126kts
28-Oct-20 08:33 38.188722 -121.400519 154 3465ft 126kts
28-Oct-20 08:34 38.155373 -121.380900 154 3038ft 133kts
28-Oct-20 08:35 38.122026 -121.361259 154 2540ft 131kts
28-Oct-20 08:36 38.088930 -121.341782 155 2040ft 130kts
28-Oct-20 08:37 38.056097 -121.322469 155 1549ft 128kts
28-Oct-20 08:38 38.025512 -121.304496 155 1468ft 116kts
28-Oct-20 08:39 37.995897 -121.289872 168 1464ft 114kts
28-Oct-20 08:40 37.963632 -121.281591 168 1145ft 115kts
28-Oct-20 08:41 37.934753 -121.274182 168 880ft 103kts
28-Oct-20 08:42 37.909416 -121.262572 132 436ft 87kts
28-Oct-20 08:43 37.896032 -121.243499 176 30ft 13kts
28-Oct-20 08:44 37.893929 -121.245483 295 29ft 0kts
28-Oct-20 08:45 37.893929 -121.245483 295 29ft 0kts

Navigation Log

Ident Type
Flight plan parsing failed, navigation log unavailable